createdAt,value
2023-04-06T00:01:23.248Z,3.30
2023-04-06T00:04:18.316Z,3.33
2023-04-06T00:06:47.897Z,3.40
2023-04-06T00:09:17.046Z,4.80
2023-04-06T00:11:48.694Z,3.40
2023-04-06T00:14:18.670Z,4.03
2023-04-06T00:16:52.565Z,3.40
2023-04-06T00:19:21.917Z,3.80
2023-04-06T00:21:52.448Z,3.30
2023-04-06T00:24:22.653Z,3.70
2023-04-06T00:26:53.149Z,3.60
2023-04-06T00:29:23.111Z,2.97
2023-04-06T00:31:53.222Z,3.47
2023-04-06T00:34:22.575Z,3.13
2023-04-06T00:36:51.723Z,3.33
2023-04-06T00:39:21.906Z,3.93
2023-04-06T00:41:52.640Z,3.27
2023-04-06T00:44:23.879Z,3.20
2023-04-06T00:46:53.405Z,3.87
2023-04-06T00:49:22.478Z,3.20
2023-04-06T00:51:52.827Z,3.17
2023-04-06T00:54:21.956Z,3.53
2023-04-06T00:56:51.963Z,3.80
2023-04-06T00:59:22.428Z,3.27
2023-04-06T01:01:53.440Z,3.50
2023-04-06T01:04:36.065Z,3.83
2023-04-06T01:07:08.219Z,3.07
2023-04-06T01:09:45.900Z,4.13
2023-04-06T01:12:22.016Z,3.50
2023-04-06T01:14:53.055Z,3.57
2023-04-06T01:17:25.006Z,3.47
2023-04-06T01:19:55.756Z,3.50
2023-04-06T01:22:32.860Z,3.80
2023-04-06T01:25:06.172Z,3.10
2023-04-06T01:28:02.169Z,3.10
2023-04-06T01:30:59.083Z,3.20
2023-04-06T01:33:49.333Z,3.00
2023-04-06T01:36:23.241Z,4.23
2023-04-06T01:39:02.641Z,3.73
2023-04-06T01:41:38.446Z,3.30
2023-04-06T01:44:07.868Z,3.27
2023-04-06T01:46:37.238Z,3.00
2023-04-06T01:49:10.454Z,3.17
2023-04-06T01:51:42.564Z,3.50
2023-04-06T01:54:17.092Z,3.20
2023-04-06T01:56:58.319Z,3.07
2023-04-06T01:59:35.378Z,4.17
2023-04-06T02:02:10.807Z,3.70
2023-04-06T02:04:41.354Z,3.20
2023-04-06T02:07:14.608Z,2.77
2023-04-06T02:09:46.292Z,3.07
2023-04-06T02:12:25.355Z,2.93
2023-04-06T02:14:55.246Z,3.10
2023-04-06T02:17:24.379Z,2.83
2023-04-06T02:19:54.569Z,2.90
2023-04-06T02:22:23.754Z,3.57
2023-04-06T02:24:56.806Z,3.57
2023-04-06T02:27:28.649Z,3.10
2023-04-06T02:29:58.766Z,3.43
2023-04-06T02:32:27.788Z,3.57
2023-04-06T02:34:57.574Z,3.20
2023-04-06T02:37:27.724Z,3.80
2023-04-06T02:39:58.455Z,3.63
2023-04-06T02:42:27.484Z,3.20
2023-04-06T02:44:57.367Z,3.47
2023-04-06T02:47:29.981Z,3.70
2023-04-06T02:50:00.229Z,3.10
2023-04-06T02:52:29.456Z,3.70
2023-04-06T02:55:01.519Z,4.37
2023-04-06T02:57:33.357Z,4.90
2023-04-06T03:00:04.092Z,5.80
2023-04-06T03:02:40.886Z,6.80
2023-04-06T03:05:14.221Z,6.60
2023-04-06T03:07:46.225Z,6.40
2023-04-06T03:10:25.764Z,6.07
2023-04-06T03:12:55.140Z,6.13
2023-04-06T03:15:48.569Z,7.20
2023-04-06T03:18:24.280Z,5.73
2023-04-06T03:20:56.506Z,4.10
2023-04-06T03:23:37.545Z,4.17
2023-04-06T03:26:11.810Z,5.33
2023-04-06T03:28:42.409Z,6.07
2023-04-06T03:31:11.875Z,6.00
2023-04-06T03:33:55.718Z,5.90
2023-04-06T03:36:29.214Z,5.27
2023-04-06T03:39:00.355Z,4.40
2023-04-06T03:41:31.323Z,4.50
2023-04-06T03:44:16.974Z,4.17
2023-04-06T03:46:47.326Z,3.50
2023-04-06T03:49:16.754Z,4.50
2023-04-06T03:51:50.663Z,4.10
2023-04-06T03:54:20.126Z,4.00
2023-04-06T03:56:50.636Z,4.43
2023-04-06T03:59:21.479Z,4.20
2023-04-06T04:01:52.406Z,6.57
2023-04-06T04:04:21.818Z,5.20
2023-04-06T04:06:52.246Z,5.03
2023-04-06T04:09:21.378Z,4.60
2023-04-06T04:11:56.017Z,4.07
2023-04-06T04:14:26.544Z,4.60
2023-04-06T04:16:55.676Z,4.67
2023-04-06T04:19:27.130Z,4.47
2023-04-06T04:21:57.576Z,4.40
2023-04-06T04:24:34.443Z,4.67
2023-04-06T04:27:07.422Z,3.90
2023-04-06T04:29:38.513Z,4.93
2023-04-06T04:32:11.015Z,5.20
2023-04-06T04:34:42.799Z,4.83
2023-04-06T04:37:18.605Z,5.50
2023-04-06T04:39:56.356Z,4.87
2023-04-06T04:42:27.707Z,4.77
2023-04-06T04:45:01.254Z,5.43
2023-04-06T04:47:41.553Z,5.63
2023-04-06T04:50:13.882Z,5.37
2023-04-06T04:52:47.021Z,5.60
2023-04-06T04:55:20.594Z,6.07
2023-04-06T04:57:54.990Z,5.60
2023-04-06T05:00:31.002Z,6.03
2023-04-06T05:03:02.685Z,5.53
2023-04-06T05:05:34.261Z,5.63
2023-04-06T05:08:06.474Z,5.43
2023-04-06T05:10:53.798Z,4.87
2023-04-06T05:13:27.291Z,5.60
2023-04-06T05:15:58.078Z,4.90
2023-04-06T05:18:35.521Z,5.00
2023-04-06T05:21:06.210Z,5.20
2023-04-06T05:23:47.251Z,5.40
2023-04-06T05:26:17.193Z,5.90
2023-04-06T05:28:50.187Z,5.63
2023-04-06T05:31:20.807Z,5.13
2023-04-06T05:33:53.232Z,6.30
2023-04-06T05:36:36.260Z,7.23
2023-04-06T05:39:11.946Z,6.33
2023-04-06T05:41:46.891Z,6.73
2023-04-06T05:44:20.741Z,5.40
2023-04-06T05:46:58.497Z,5.73
2023-04-06T05:49:29.364Z,6.33
2023-04-06T05:51:59.146Z,5.87
2023-04-06T05:54:29.985Z,5.67
2023-04-06T05:57:05.978Z,5.63
2023-04-06T05:59:37.238Z,5.40
2023-04-06T06:02:08.049Z,4.97
2023-04-06T06:04:43.094Z,5.50
2023-04-06T06:07:13.063Z,4.60
2023-04-06T06:09:47.936Z,5.20
2023-04-06T06:12:23.526Z,5.77
2023-04-06T06:14:55.887Z,6.60
2023-04-06T06:17:28.064Z,4.87
2023-04-06T06:19:59.147Z,5.80
2023-04-06T06:22:30.159Z,4.70
2023-04-06T06:25:01.448Z,5.17
2023-04-06T06:27:31.165Z,6.10
2023-04-06T06:30:03.587Z,5.33
2023-04-06T06:32:35.408Z,4.60
2023-04-06T06:35:06.329Z,5.90
2023-04-06T06:37:36.692Z,5.30
2023-04-06T06:40:09.028Z,5.80
2023-04-06T06:42:39.244Z,5.30
2023-04-06T06:45:26.751Z,4.87
2023-04-06T06:47:56.713Z,5.27
2023-04-06T06:50:26.051Z,5.13
2023-04-06T06:52:56.913Z,7.13
2023-04-06T06:55:26.590Z,6.13
2023-04-06T06:57:56.159Z,5.50
2023-04-06T07:00:27.444Z,5.60
2023-04-06T07:02:57.684Z,6.00
2023-04-06T07:05:28.543Z,7.73
2023-04-06T07:08:01.886Z,8.40
2023-04-06T07:10:31.162Z,8.70
2023-04-06T07:13:00.225Z,9.13
2023-04-06T07:15:32.223Z,8.20
2023-04-06T07:18:02.110Z,7.90
2023-04-06T07:20:31.379Z,8.30
2023-04-06T07:23:01.660Z,7.30
2023-04-06T07:25:32.380Z,10.30
2023-04-06T07:28:02.538Z,10.60
2023-04-06T07:30:35.140Z,9.57
2023-04-06T07:33:07.057Z,9.30
2023-04-06T07:35:38.826Z,5.87
2023-04-06T07:38:09.706Z,3.70
2023-04-06T07:40:39.027Z,3.30
2023-04-06T07:43:09.869Z,3.27
2023-04-06T07:45:41.984Z,4.17
2023-04-06T07:48:12.397Z,9.97
2023-04-06T07:50:43.218Z,3.57
2023-04-06T07:53:13.384Z,4.80
2023-04-06T07:55:42.584Z,3.87
2023-04-06T07:58:12.765Z,3.07
2023-04-06T08:00:43.446Z,3.60
2023-04-06T08:03:13.753Z,3.53
2023-04-06T08:05:43.219Z,3.00
2023-04-06T08:08:12.567Z,4.20
2023-04-06T08:10:41.756Z,2.97
2023-04-06T08:13:13.214Z,3.10
2023-04-06T08:15:44.260Z,2.40
2023-04-06T08:18:14.893Z,2.50
2023-04-06T08:20:44.088Z,3.57
2023-04-06T08:23:13.413Z,4.23
2023-04-06T08:25:43.230Z,3.03
2023-04-06T08:28:12.676Z,4.17
2023-04-06T08:30:45.674Z,3.20
2023-04-06T08:33:15.946Z,2.80
2023-04-06T08:35:45.246Z,2.87
2023-04-06T08:38:15.639Z,2.03
2023-04-06T08:40:45.615Z,2.30
2023-04-06T08:43:17.194Z,2.47
2023-04-06T08:45:48.042Z,10.83
2023-04-06T08:48:18.820Z,2.87
2023-04-06T08:50:48.274Z,3.40
2023-04-06T08:53:19.101Z,3.07
2023-04-06T08:55:48.617Z,3.50
2023-04-06T08:58:27.865Z,3.47
2023-04-06T09:01:15.487Z,3.27
2023-04-06T09:03:45.431Z,2.90
2023-04-06T09:06:16.393Z,2.73
2023-04-06T09:08:46.497Z,3.13
2023-04-06T09:11:16.534Z,2.93
2023-04-06T09:13:50.280Z,3.27
2023-04-06T09:16:21.662Z,5.20
2023-04-06T09:18:52.707Z,4.43
2023-04-06T09:21:24.656Z,3.77
2023-04-06T09:24:02.340Z,3.10
2023-04-06T09:26:31.752Z,3.13
2023-04-06T09:29:03.124Z,3.00
2023-04-06T09:31:35.460Z,3.53
2023-04-06T09:34:07.435Z,3.13
2023-04-06T09:36:39.571Z,2.80
2023-04-06T09:39:09.545Z,3.80
2023-04-06T09:41:38.638Z,4.00
2023-04-06T09:44:09.088Z,3.50
2023-04-06T09:46:57.975Z,3.77
2023-04-06T09:49:30.809Z,5.07
2023-04-06T09:52:03.022Z,4.93
2023-04-06T09:54:34.570Z,4.90
2023-04-06T09:57:07.851Z,3.73
2023-04-06T09:59:41.520Z,3.03
2023-04-06T10:02:19.309Z,2.90
2023-04-06T10:04:53.259Z,5.57
2023-04-06T10:07:24.050Z,7.27
2023-04-06T10:09:53.832Z,9.30
2023-04-06T10:12:23.658Z,6.00
2023-04-06T10:14:53.424Z,5.47
2023-04-06T10:17:25.751Z,4.97
2023-04-06T10:19:58.016Z,8.60
2023-04-06T10:22:29.834Z,11.57
2023-04-06T10:25:00.008Z,10.60
2023-04-06T10:27:32.239Z,11.70
2023-04-06T10:30:06.027Z,10.40
2023-04-06T10:32:38.564Z,10.13
2023-04-06T10:35:14.349Z,7.03
2023-04-06T10:37:54.335Z,8.70
2023-04-06T10:40:28.877Z,8.13
2023-04-06T10:42:59.187Z,7.50
2023-04-06T10:45:29.266Z,8.00
2023-04-06T10:48:01.243Z,8.20
2023-04-06T10:50:32.876Z,9.33
2023-04-06T10:53:02.841Z,7.60
2023-04-06T10:55:33.887Z,6.57
2023-04-06T10:58:03.093Z,5.37
2023-04-06T11:00:47.392Z,5.90
2023-04-06T11:03:22.131Z,6.20
2023-04-06T11:05:53.664Z,5.23
2023-04-06T11:08:26.400Z,5.50
2023-04-06T11:11:08.687Z,5.60
2023-04-06T11:13:42.827Z,5.20
2023-04-06T11:16:16.865Z,6.60
2023-04-06T11:18:51.922Z,6.90
2023-04-06T11:21:23.127Z,9.63
2023-04-06T11:23:52.996Z,7.33
2023-04-06T11:26:22.065Z,6.00
2023-04-06T11:28:53.018Z,4.87
2023-04-06T11:31:22.746Z,5.23
2023-04-06T11:33:58.717Z,5.73
2023-04-06T11:36:31.392Z,5.00
2023-04-06T11:39:00.909Z,4.53
2023-04-06T11:41:31.186Z,4.63
2023-04-06T11:44:04.214Z,5.10
2023-04-06T11:46:33.768Z,4.90
2023-04-06T11:49:05.109Z,6.10
2023-04-06T11:51:38.816Z,5.00
2023-04-06T11:54:09.471Z,5.07
2023-04-06T11:56:40.178Z,4.80
2023-04-06T11:59:10.268Z,4.50
2023-04-06T12:04:37.453Z,4.10
2023-04-06T12:07:07.281Z,6.17
2023-04-06T12:09:37.739Z,3.60
2023-04-06T12:12:08.104Z,4.60
2023-04-06T12:14:37.381Z,4.60
2023-04-06T12:17:07.372Z,3.87
2023-04-06T12:19:38.624Z,4.80
2023-04-06T12:22:08.666Z,5.07
2023-04-06T12:24:37.718Z,4.00
2023-04-06T12:27:10.895Z,3.87
2023-04-06T12:29:40.766Z,3.93
2023-04-06T12:32:10.103Z,3.60
2023-04-06T12:34:41.516Z,4.90
2023-04-06T12:37:12.091Z,3.33
2023-04-06T12:39:41.600Z,3.17
2023-04-06T12:42:11.350Z,5.30
2023-04-06T12:44:42.462Z,2.70
2023-04-06T12:47:12.234Z,3.30
2023-04-06T12:49:44.792Z,2.40
2023-04-06T12:52:14.138Z,3.20
2023-04-06T12:54:44.855Z,2.53
2023-04-06T12:57:15.130Z,2.53
2023-04-06T12:59:46.325Z,2.90
2023-04-06T13:02:17.011Z,2.70
2023-04-06T13:04:49.376Z,2.43
2023-04-06T13:07:18.963Z,2.30
2023-04-06T13:09:48.651Z,2.80
2023-04-06T13:12:19.747Z,2.87
2023-04-06T13:14:52.258Z,2.10
2023-04-06T13:17:23.568Z,2.10
2023-04-06T13:19:54.465Z,2.37
2023-04-06T13:22:25.337Z,2.33
2023-04-06T13:24:54.450Z,1.90
2023-04-06T13:27:23.889Z,3.93
2023-04-06T13:29:53.331Z,2.53
2023-04-06T13:32:22.778Z,2.40
2023-04-06T13:34:54.473Z,2.67
2023-04-06T13:37:26.780Z,2.23
2023-04-06T13:39:57.248Z,1.80
2023-04-06T13:42:28.177Z,2.33
2023-04-06T13:44:58.543Z,1.77
2023-04-06T13:47:28.642Z,1.70
2023-04-06T13:49:57.933Z,1.87
2023-04-06T13:52:29.254Z,1.80
2023-04-06T13:54:58.946Z,2.17
2023-04-06T13:57:28.110Z,2.70
2023-04-06T13:59:58.099Z,2.37
2023-04-06T14:02:28.537Z,2.20
2023-04-06T14:04:58.294Z,5.83
2023-04-06T14:07:29.058Z,2.70
2023-04-06T14:09:59.066Z,1.87
2023-04-06T14:12:28.226Z,2.37
2023-04-06T14:14:58.915Z,2.10
2023-04-06T14:17:28.054Z,2.10
2023-04-06T14:19:58.134Z,2.43
2023-04-06T14:25:00.196Z,3.13
2023-04-06T14:27:29.327Z,2.90
2023-04-06T14:29:59.852Z,2.20
2023-04-06T14:32:29.132Z,1.90
2023-04-06T14:34:59.299Z,2.23
2023-04-06T14:37:30.713Z,7.83
2023-04-06T14:40:01.427Z,2.17
2023-04-06T14:42:31.085Z,3.13
2023-04-06T14:45:00.913Z,1.80
2023-04-06T14:47:30.104Z,1.90
2023-04-06T14:49:59.565Z,1.80
2023-04-06T14:52:32.704Z,2.30
2023-04-06T14:55:03.138Z,1.80
2023-04-06T14:57:32.568Z,1.73
2023-04-06T15:00:02.224Z,2.20
2023-04-06T15:02:32.752Z,2.63
2023-04-06T15:05:03.651Z,2.07
2023-04-06T15:07:34.280Z,2.57
2023-04-06T15:10:05.149Z,2.10
2023-04-06T15:12:34.471Z,3.07
2023-04-06T15:15:03.908Z,1.93
2023-04-06T15:17:34.112Z,3.47
2023-04-06T15:20:04.423Z,2.53
2023-04-06T15:22:35.283Z,3.67
2023-04-06T15:25:04.694Z,2.90
2023-04-06T15:27:33.799Z,2.33
2023-04-06T15:30:04.192Z,2.23
2023-04-06T15:32:33.428Z,2.40
2023-04-06T15:35:03.328Z,1.80
2023-04-06T15:37:32.878Z,2.37
2023-04-06T15:40:03.880Z,1.90
2023-04-06T15:42:36.309Z,1.50
2023-04-06T15:45:06.739Z,1.80
2023-04-06T15:47:35.927Z,2.00
2023-04-06T15:50:06.287Z,2.50
2023-04-06T15:52:35.431Z,2.10
2023-04-06T15:55:09.090Z,1.70
2023-04-06T15:57:39.215Z,2.00
2023-04-06T16:00:09.194Z,1.70
2023-04-06T16:02:39.906Z,2.27
2023-04-06T16:05:09.325Z,2.07
2023-04-06T16:07:38.794Z,1.57
2023-04-06T16:10:11.051Z,2.00
2023-04-06T16:12:42.619Z,2.10
2023-04-06T16:15:12.252Z,2.80
2023-04-06T16:17:43.527Z,1.90
2023-04-06T16:20:16.569Z,1.90
2023-04-06T16:22:46.222Z,2.30
2023-04-06T16:25:16.894Z,8.40
2023-04-06T16:27:47.240Z,1.80
2023-04-06T16:30:16.580Z,2.43
2023-04-06T16:32:47.572Z,1.80
2023-04-06T16:35:17.025Z,1.90
2023-04-06T16:37:47.210Z,1.53
2023-04-06T16:40:19.895Z,2.60
2023-04-06T16:42:50.276Z,1.90
2023-04-06T16:45:19.450Z,1.80
2023-04-06T16:47:50.781Z,1.70
2023-04-06T16:50:21.145Z,2.13
2023-04-06T16:52:50.525Z,1.60
2023-04-06T16:55:22.507Z,1.50
2023-04-06T16:57:52.222Z,1.40
2023-04-06T17:00:21.796Z,1.70
2023-04-06T17:02:52.200Z,2.20
2023-04-06T17:05:24.988Z,2.80
2023-04-06T17:07:56.231Z,2.40
2023-04-06T17:10:34.318Z,2.30
2023-04-06T17:13:11.349Z,1.93
2023-04-06T17:15:40.613Z,2.60
2023-04-06T17:18:10.039Z,2.53
2023-04-06T17:20:40.562Z,1.83
2023-04-06T17:23:10.615Z,1.60
2023-04-06T17:25:41.982Z,3.30
2023-04-06T17:28:11.381Z,2.17
2023-04-06T17:30:43.584Z,2.00
2023-04-06T17:33:13.791Z,1.60
2023-04-06T17:35:43.020Z,1.60
2023-04-06T17:38:12.839Z,2.03
2023-04-06T17:40:43.843Z,2.17
2023-04-06T17:43:15.428Z,2.00
2023-04-06T17:45:45.517Z,1.90
2023-04-06T17:48:14.575Z,2.13
2023-04-06T17:50:45.746Z,1.87
2023-04-06T17:53:15.693Z,2.43
2023-04-06T17:55:47.533Z,2.37
2023-04-06T17:58:17.131Z,2.40
2023-04-06T18:00:46.270Z,1.80
2023-04-06T18:03:17.001Z,2.23
2023-04-06T18:05:46.231Z,3.00
2023-04-06T18:08:16.573Z,2.70
2023-04-06T18:10:49.381Z,2.37
2023-04-06T18:13:18.656Z,2.00
2023-04-06T18:15:47.910Z,1.63
2023-04-06T18:18:18.864Z,1.97
2023-04-06T18:20:48.116Z,2.10
2023-04-06T18:23:17.565Z,1.73
2023-04-06T18:25:48.330Z,2.47
2023-04-06T18:28:19.329Z,3.47
2023-04-06T18:30:48.509Z,2.47
2023-04-06T18:33:18.075Z,1.70
2023-04-06T18:35:47.288Z,1.80
2023-04-06T18:38:17.183Z,2.07
2023-04-06T18:40:47.321Z,1.83
2023-04-06T18:43:18.060Z,2.00
2023-04-06T18:45:48.619Z,2.00
2023-04-06T18:48:17.868Z,2.10
2023-04-06T18:50:54.965Z,2.03
2023-04-06T18:53:24.993Z,2.60
2023-04-06T18:55:54.157Z,2.50
2023-04-06T18:58:26.457Z,2.30
2023-04-06T19:00:57.473Z,2.50
2023-04-06T19:03:26.650Z,3.33
2023-04-06T19:05:56.830Z,2.60
2023-04-06T19:08:26.216Z,2.33
2023-04-06T19:10:56.065Z,2.40
2023-04-06T19:13:29.630Z,2.20
2023-04-06T19:15:59.210Z,4.37
2023-04-06T19:18:28.312Z,3.30
2023-04-06T19:20:58.991Z,2.70
2023-04-06T19:23:28.091Z,3.40
2023-04-06T19:25:58.213Z,2.73
2023-04-06T19:28:28.878Z,3.67
2023-04-06T19:30:59.313Z,3.13
2023-04-06T19:33:29.018Z,3.03
2023-04-06T19:35:59.365Z,4.83
2023-04-06T19:38:29.076Z,2.97
2023-04-06T19:40:59.683Z,3.10
2023-04-06T19:43:31.125Z,2.70
2023-04-06T19:46:01.303Z,2.20
2023-04-06T19:48:30.505Z,2.77
2023-04-06T19:51:00.002Z,2.40
2023-04-06T19:53:29.247Z,2.80
2023-04-06T19:55:58.601Z,3.03
2023-04-06T19:58:28.749Z,2.50
2023-04-06T20:01:23.414Z,6.50
2023-04-06T20:03:55.206Z,2.20
2023-04-06T20:06:24.775Z,2.70
2023-04-06T20:08:53.776Z,2.63
2023-04-06T20:11:24.650Z,11.10
2023-04-06T20:13:53.728Z,3.37
2023-04-06T20:16:24.180Z,2.73
2023-04-06T20:18:55.675Z,3.60
2023-04-06T20:21:25.061Z,2.50
2023-04-06T20:23:54.286Z,3.33
2023-04-06T20:26:23.886Z,2.30
2023-04-06T20:28:52.958Z,3.00
2023-04-06T20:31:22.658Z,2.93
2023-04-06T20:33:53.368Z,4.00
2023-04-06T20:36:24.474Z,2.63
2023-04-06T20:38:54.534Z,2.37
2023-04-06T20:41:23.697Z,2.33
2023-04-06T20:43:53.099Z,2.90
2023-04-06T20:46:25.479Z,2.97
2023-04-06T20:48:55.679Z,2.27
2023-04-06T20:51:26.997Z,2.13
2023-04-06T20:53:57.039Z,2.00
2023-04-06T20:56:26.903Z,2.60
2023-04-06T20:59:00.048Z,2.80
2023-04-06T21:01:35.430Z,2.90
2023-04-06T21:04:04.834Z,5.73
2023-04-06T21:06:36.281Z,4.93
2023-04-06T21:09:05.785Z,2.80
2023-04-06T21:11:34.984Z,2.73
2023-04-06T21:14:04.662Z,2.83
2023-04-06T21:16:33.697Z,2.50
2023-04-06T21:19:03.397Z,3.30
2023-04-06T21:21:32.807Z,2.60
2023-04-06T21:24:03.749Z,2.40
2023-04-06T21:26:33.449Z,8.33
2023-04-06T21:29:03.264Z,3.90
2023-04-06T21:31:32.460Z,7.30
2023-04-06T21:34:03.308Z,2.53
2023-04-06T21:36:33.241Z,2.53
2023-04-06T21:39:05.173Z,5.60
2023-04-06T21:41:34.989Z,4.80
2023-04-06T21:44:04.453Z,3.03
2023-04-06T21:46:36.206Z,2.30
2023-04-06T21:49:05.638Z,2.30
2023-04-06T21:51:34.693Z,4.60
2023-04-06T21:54:06.642Z,2.17
2023-04-06T21:56:35.945Z,2.60
2023-04-06T21:59:05.146Z,2.50
2023-04-06T22:01:35.124Z,5.10
2023-04-06T22:04:04.332Z,4.90
2023-04-06T22:06:33.738Z,21.03
2023-04-06T22:09:06.533Z,3.03
2023-04-06T22:11:37.649Z,2.37
2023-04-06T22:14:07.972Z,3.67
2023-04-06T22:16:37.523Z,3.47
2023-04-06T22:19:06.684Z,3.33
2023-04-06T22:21:37.097Z,3.23
2023-04-06T22:24:06.290Z,6.60
2023-04-06T22:26:38.590Z,4.57
2023-04-06T22:29:08.316Z,5.50
2023-04-06T22:31:37.618Z,3.67
2023-04-06T22:34:07.757Z,4.40
2023-04-06T22:36:36.801Z,3.53
2023-04-06T22:39:06.385Z,4.10
2023-04-06T22:41:36.250Z,3.10
2023-04-06T22:44:07.124Z,3.87
2023-04-06T22:46:38.009Z,2.63
2023-04-06T22:49:07.905Z,2.60
2023-04-06T22:51:37.284Z,2.93
2023-04-06T22:54:07.234Z,3.57
2023-04-06T22:56:36.952Z,3.03
2023-04-06T22:59:07.964Z,2.77
2023-04-06T23:01:37.395Z,3.40
2023-04-06T23:04:06.759Z,3.07
2023-04-06T23:06:37.542Z,3.17
2023-04-06T23:09:06.580Z,6.20
2023-04-06T23:11:36.305Z,3.50
2023-04-06T23:14:05.705Z,3.47
2023-04-06T23:16:36.660Z,2.43
2023-04-06T23:19:05.882Z,2.30
2023-04-06T23:21:36.497Z,2.77
2023-04-06T23:24:06.473Z,2.33
2023-04-06T23:26:35.912Z,2.57
2023-04-06T23:29:05.184Z,2.80
2023-04-06T23:31:35.954Z,2.30
2023-04-06T23:34:06.380Z,2.60
2023-04-06T23:36:35.785Z,2.40
2023-04-06T23:39:06.059Z,2.87
2023-04-06T23:41:36.480Z,2.90
2023-04-06T23:44:06.364Z,2.07
2023-04-06T23:46:36.983Z,2.77
2023-04-06T23:49:07.237Z,4.33
2023-04-06T23:51:37.124Z,2.70
2023-04-06T23:54:07.694Z,3.73
2023-04-06T23:56:37.044Z,2.73
2023-04-06T23:59:06.455Z,2.73
